Conway, Kansas
Current Conditions -  °F | °C
As of 12:52 AM on Friday 31 Oct 2014 (Local Time) from KHUT Reporting Station
Clear Clear  
Wind Chill: 42°   Ceiling: Unl
Heat Index: 48°   Visibility: 10mi
Dew Point: 36°   Wind: 16mph
Humidity: 63%   Direction: 20°NNE
Pressure: 30.34"   Gusts: 26mph
Location:  38.4089°N, 97.6556°W
Report Text: KHUT 310552Z AUTO 02014G23KT 10SM CLR 09/02 A3034 RMK AO2 SLP262 T00890022 10178 20089 402280067 51024
Loading
Personal Weather Stations






























Interactive Weather Map
Tropical Storm Tracking
New forecast layout! Learn more

10-Day Weather Forecast

Advertisements
Track Severe Weather on mobile